sensor_id;sensor_type;location;lat;lon;timestamp;P1;durP1;ratioP1;P2;durP2;ratioP2
29378;SDS011;16362;47.202;15.258;2023-03-01T00:01:38;25.70;;;15.15;;
29378;SDS011;16362;47.202;15.258;2023-03-01T00:04:05;27.33;;;15.55;;
29378;SDS011;16362;47.202;15.258;2023-03-01T00:06:31;34.33;;;15.68;;
29378;SDS011;16362;47.202;15.258;2023-03-01T00:08:59;26.67;;;15.25;;
29378;SDS011;16362;47.202;15.258;2023-03-01T00:11:26;28.80;;;15.85;;
29378;SDS011;16362;47.202;15.258;2023-03-01T00:13:57;30.42;;;15.20;;
29378;SDS011;16362;47.202;15.258;2023-03-01T00:16:28;25.20;;;13.85;;
29378;SDS011;16362;47.202;15.258;2023-03-01T00:21:37;28.13;;;14.95;;
29378;SDS011;16362;47.202;15.258;2023-03-01T00:24:04;25.25;;;14.52;;
29378;SDS011;16362;47.202;15.258;2023-03-01T00:26:31;28.75;;;14.93;;
29378;SDS011;16362;47.202;15.258;2023-03-01T00:28:58;29.70;;;14.63;;
29378;SDS011;16362;47.202;15.258;2023-03-01T00:31:27;31.58;;;15.27;;
29378;SDS011;16362;47.202;15.258;2023-03-01T00:34:05;27.27;;;15.05;;
29378;SDS011;16362;47.202;15.258;2023-03-01T00:36:33;25.98;;;14.73;;
29378;SDS011;16362;47.202;15.258;2023-03-01T00:39:02;23.67;;;14.10;;
29378;SDS011;16362;47.202;15.258;2023-03-01T00:41:30;25.60;;;15.50;;
29378;SDS011;16362;47.202;15.258;2023-03-01T00:43:57;25.88;;;14.13;;
29378;SDS011;16362;47.202;15.258;2023-03-01T00:46:25;25.35;;;14.98;;
29378;SDS011;16362;47.202;15.258;2023-03-01T00:48:53;25.40;;;14.13;;
29378;SDS011;16362;47.202;15.258;2023-03-01T00:51:21;25.48;;;14.15;;
29378;SDS011;16362;47.202;15.258;2023-03-01T00:53:50;22.65;;;14.10;;
29378;SDS011;16362;47.202;15.258;2023-03-01T01:00:09;22.58;;;13.95;;
29378;SDS011;16362;47.202;15.258;2023-03-01T01:02:37;19.98;;;13.18;;
29378;SDS011;16362;47.202;15.258;2023-03-01T01:05:04;28.58;;;14.40;;
29378;SDS011;16362;47.202;15.258;2023-03-01T01:07:31;26.23;;;14.07;;
29378;SDS011;16362;47.202;15.258;2023-03-01T01:09:58;22.40;;;13.25;;
29378;SDS011;16362;47.202;15.258;2023-03-01T01:12:24;22.08;;;13.65;;
29378;SDS011;16362;47.202;15.258;2023-03-01T01:14:51;28.90;;;15.27;;
29378;SDS011;16362;47.202;15.258;2023-03-01T01:17:18;19.58;;;13.50;;
29378;SDS011;16362;47.202;15.258;2023-03-01T01:19:44;23.77;;;14.35;;
29378;SDS011;16362;47.202;15.258;2023-03-01T01:22:11;25.63;;;13.85;;
29378;SDS011;16362;47.202;15.258;2023-03-01T01:24:38;28.85;;;14.57;;
29378;SDS011;16362;47.202;15.258;2023-03-01T01:29:52;24.58;;;13.73;;
29378;SDS011;16362;47.202;15.258;2023-03-01T01:32:19;19.20;;;13.07;;
29378;SDS011;16362;47.202;15.258;2023-03-01T01:34:46;25.73;;;14.48;;
29378;SDS011;16362;47.202;15.258;2023-03-01T01:37:13;22.95;;;14.48;;
29378;SDS011;16362;47.202;15.258;2023-03-01T01:39:39;23.20;;;14.30;;
29378;SDS011;16362;47.202;15.258;2023-03-01T01:42:09;21.77;;;13.50;;
29378;SDS011;16362;47.202;15.258;2023-03-01T01:44:44;22.30;;;13.95;;
29378;SDS011;16362;47.202;15.258;2023-03-01T01:47:14;23.90;;;13.02;;
29378;SDS011;16362;47.202;15.258;2023-03-01T01:50:01;20.65;;;12.95;;
29378;SDS011;16362;47.202;15.258;2023-03-01T01:52:31;25.25;;;13.18;;
29378;SDS011;16362;47.202;15.258;2023-03-01T01:55:03;20.95;;;13.07;;
29378;SDS011;16362;47.202;15.258;2023-03-01T01:57:34;21.95;;;13.35;;
29378;SDS011;16362;47.202;15.258;2023-03-01T02:00:07;25.92;;;13.27;;
29378;SDS011;16362;47.202;15.258;2023-03-01T02:02:38;26.08;;;14.23;;
29378;SDS011;16362;47.202;15.258;2023-03-01T02:05:28;23.60;;;13.75;;
29378;SDS011;16362;47.202;15.258;2023-03-01T02:07:55;26.52;;;14.02;;
29378;SDS011;16362;47.202;15.258;2023-03-01T02:10:24;19.27;;;12.68;;
29378;SDS011;16362;47.202;15.258;2023-03-01T02:12:53;23.50;;;14.23;;
29378;SDS011;16362;47.202;15.258;2023-03-01T02:15:23;24.23;;;13.50;;
29378;SDS011;16362;47.202;15.258;2023-03-01T02:17:50;17.02;;;12.10;;
29378;SDS011;16362;47.202;15.258;2023-03-01T02:20:27;21.75;;;13.10;;
29378;SDS011;16362;47.202;15.258;2023-03-01T02:22:56;20.65;;;13.20;;
29378;SDS011;16362;47.202;15.258;2023-03-01T02:30:40;25.77;;;14.10;;
29378;SDS011;16362;47.202;15.258;2023-03-01T02:33:36;29.15;;;14.68;;
29378;SDS011;16362;47.202;15.258;2023-03-01T02:36:07;24.92;;;14.52;;
29378;SDS011;16362;47.202;15.258;2023-03-01T02:38:37;28.17;;;14.15;;
29378;SDS011;16362;47.202;15.258;2023-03-01T02:41:04;22.92;;;14.18;;
29378;SDS011;16362;47.202;15.258;2023-03-01T02:43:33;23.17;;;14.05;;
29378;SDS011;16362;47.202;15.258;2023-03-01T02:46:07;22.92;;;14.02;;
29378;SDS011;16362;47.202;15.258;2023-03-01T02:48:49;24.58;;;14.15;;
29378;SDS011;16362;47.202;15.258;2023-03-01T02:56:54;25.10;;;14.07;;
29378;SDS011;16362;47.202;15.258;2023-03-01T02:59:23;20.17;;;13.25;;
29378;SDS011;16362;47.202;15.258;2023-03-01T03:01:53;25.35;;;13.45;;
29378;SDS011;16362;47.202;15.258;2023-03-01T03:04:20;24.88;;;15.20;;
29378;SDS011;16362;47.202;15.258;2023-03-01T03:06:48;28.27;;;14.95;;
29378;SDS011;16362;47.202;15.258;2023-03-01T03:09:17;21.73;;;14.00;;
29378;SDS011;16362;47.202;15.258;2023-03-01T03:11:56;23.55;;;13.75;;
29378;SDS011;16362;47.202;15.258;2023-03-01T03:14:23;20.70;;;13.30;;
29378;SDS011;16362;47.202;15.258;2023-03-01T03:16:50;22.23;;;13.57;;
29378;SDS011;16362;47.202;15.258;2023-03-01T03:19:18;21.42;;;13.50;;
29378;SDS011;16362;47.202;15.258;2023-03-01T03:21:46;23.50;;;13.10;;
29378;SDS011;16362;47.202;15.258;2023-03-01T03:24:12;21.17;;;13.07;;
29378;SDS011;16362;47.202;15.258;2023-03-01T03:26:39;21.08;;;12.65;;
29378;SDS011;16362;47.202;15.258;2023-03-01T03:29:06;25.15;;;13.70;;
29378;SDS011;16362;47.202;15.258;2023-03-01T03:31:33;24.65;;;13.82;;
29378;SDS011;16362;47.202;15.258;2023-03-01T03:34:00;20.30;;;12.90;;
29378;SDS011;16362;47.202;15.258;2023-03-01T03:36:26;22.20;;;13.60;;
29378;SDS011;16362;47.202;15.258;2023-03-01T03:38:53;23.33;;;13.38;;
29378;SDS011;16362;47.202;15.258;2023-03-01T03:41:20;24.83;;;13.23;;
29378;SDS011;16362;47.202;15.258;2023-03-01T03:43:47;19.98;;;12.88;;
29378;SDS011;16362;47.202;15.258;2023-03-01T03:46:15;22.67;;;13.50;;
29378;SDS011;16362;47.202;15.258;2023-03-01T03:48:44;25.70;;;13.60;;
29378;SDS011;16362;47.202;15.258;2023-03-01T03:51:12;22.55;;;13.63;;
29378;SDS011;16362;47.202;15.258;2023-03-01T03:53:41;21.67;;;12.77;;
29378;SDS011;16362;47.202;15.258;2023-03-01T03:56:08;21.88;;;12.65;;
29378;SDS011;16362;47.202;15.258;2023-03-01T03:58:35;18.42;;;12.20;;
29378;SDS011;16362;47.202;15.258;2023-03-01T04:01:03;21.40;;;13.50;;
29378;SDS011;16362;47.202;15.258;2023-03-01T04:03:30;20.02;;;13.05;;
29378;SDS011;16362;47.202;15.258;2023-03-01T04:05:58;20.50;;;12.77;;
29378;SDS011;16362;47.202;15.258;2023-03-01T04:08:27;22.15;;;12.93;;
29378;SDS011;16362;47.202;15.258;2023-03-01T04:10:58;23.23;;;13.70;;
29378;SDS011;16362;47.202;15.258;2023-03-01T04:13:46;23.60;;;13.82;;
29378;SDS011;16362;47.202;15.258;2023-03-01T04:16:13;20.98;;;12.95;;
29378;SDS011;16362;47.202;15.258;2023-03-01T04:18:40;23.25;;;13.60;;
29378;SDS011;16362;47.202;15.258;2023-03-01T04:21:07;20.08;;;12.88;;
29378;SDS011;16362;47.202;15.258;2023-03-01T04:23:33;17.30;;;12.23;;
29378;SDS011;16362;47.202;15.258;2023-03-01T04:26:01;17.27;;;11.93;;
29378;SDS011;16362;47.202;15.258;2023-03-01T04:28:29;20.55;;;12.25;;
29378;SDS011;16362;47.202;15.258;2023-03-01T04:31:02;21.13;;;12.88;;
29378;SDS011;16362;47.202;15.258;2023-03-01T04:33:40;22.33;;;12.75;;
29378;SDS011;16362;47.202;15.258;2023-03-01T04:36:11;19.13;;;11.88;;
29378;SDS011;16362;47.202;15.258;2023-03-01T04:38:40;21.80;;;12.35;;
29378;SDS011;16362;47.202;15.258;2023-03-01T04:41:08;18.00;;;12.27;;
29378;SDS011;16362;47.202;15.258;2023-03-01T04:43:37;16.00;;;11.60;;
29378;SDS011;16362;47.202;15.258;2023-03-01T04:46:05;26.63;;;13.70;;
29378;SDS011;16362;47.202;15.258;2023-03-01T04:48:35;29.35;;;15.07;;
29378;SDS011;16362;47.202;15.258;2023-03-01T04:51:03;22.55;;;13.63;;
29378;SDS011;16362;47.202;15.258;2023-03-01T04:53:30;21.40;;;13.88;;
29378;SDS011;16362;47.202;15.258;2023-03-01T04:55:56;25.15;;;14.30;;
29378;SDS011;16362;47.202;15.258;2023-03-01T04:58:23;21.63;;;12.88;;
29378;SDS011;16362;47.202;15.258;2023-03-01T05:00:51;23.85;;;12.93;;
29378;SDS011;16362;47.202;15.258;2023-03-01T05:03:19;21.83;;;13.10;;
29378;SDS011;16362;47.202;15.258;2023-03-01T05:05:48;24.20;;;13.10;;
29378;SDS011;16362;47.202;15.258;2023-03-01T05:08:29;19.30;;;12.48;;
29378;SDS011;16362;47.202;15.258;2023-03-01T05:10:55;20.20;;;13.05;;
29378;SDS011;16362;47.202;15.258;2023-03-01T05:13:22;28.25;;;14.10;;
29378;SDS011;16362;47.202;15.258;2023-03-01T05:15:59;23.88;;;13.80;;
29378;SDS011;16362;47.202;15.258;2023-03-01T05:18:28;20.58;;;12.85;;
29378;SDS011;16362;47.202;15.258;2023-03-01T05:21:01;20.88;;;12.57;;
29378;SDS011;16362;47.202;15.258;2023-03-01T05:23:30;16.42;;;11.80;;
29378;SDS011;16362;47.202;15.258;2023-03-01T05:25:58;21.10;;;12.50;;
29378;SDS011;16362;47.202;15.258;2023-03-01T05:28:32;20.92;;;12.32;;
29378;SDS011;16362;47.202;15.258;2023-03-01T05:30:59;21.58;;;13.20;;
29378;SDS011;16362;47.202;15.258;2023-03-01T05:33:40;24.42;;;12.43;;
29378;SDS011;16362;47.202;15.258;2023-03-01T05:36:08;22.00;;;13.50;;
29378;SDS011;16362;47.202;15.258;2023-03-01T05:38:36;21.58;;;12.40;;
29378;SDS011;16362;47.202;15.258;2023-03-01T05:41:03;25.45;;;13.85;;
29378;SDS011;16362;47.202;15.258;2023-03-01T05:43:30;21.58;;;13.25;;
29378;SDS011;16362;47.202;15.258;2023-03-01T05:46:00;23.35;;;14.40;;
29378;SDS011;16362;47.202;15.258;2023-03-01T05:48:26;26.33;;;14.35;;
29378;SDS011;16362;47.202;15.258;2023-03-01T05:50:53;21.42;;;12.77;;
29378;SDS011;16362;47.202;15.258;2023-03-01T05:53:20;24.02;;;14.40;;
29378;SDS011;16362;47.202;15.258;2023-03-01T05:55:47;20.45;;;13.45;;
29378;SDS011;16362;47.202;15.258;2023-03-01T05:58:17;22.30;;;13.45;;
29378;SDS011;16362;47.202;15.258;2023-03-01T06:00:46;22.70;;;13.63;;
29378;SDS011;16362;47.202;15.258;2023-03-01T06:03:15;25.17;;;13.38;;
29378;SDS011;16362;47.202;15.258;2023-03-01T06:05:43;21.98;;;13.32;;
29378;SDS011;16362;47.202;15.258;2023-03-01T06:08:11;24.17;;;12.85;;
29378;SDS011;16362;47.202;15.258;2023-03-01T06:10:49;26.92;;;13.57;;
29378;SDS011;16362;47.202;15.258;2023-03-01T06:13:16;20.08;;;12.50;;
29378;SDS011;16362;47.202;15.258;2023-03-01T06:15:43;21.80;;;12.85;;
29378;SDS011;16362;47.202;15.258;2023-03-01T06:18:09;25.35;;;13.93;;
29378;SDS011;16362;47.202;15.258;2023-03-01T06:20:36;21.73;;;12.80;;
29378;SDS011;16362;47.202;15.258;2023-03-01T06:23:03;17.70;;;12.40;;
29378;SDS011;16362;47.202;15.258;2023-03-01T06:25:29;19.95;;;13.18;;
29378;SDS011;16362;47.202;15.258;2023-03-01T06:27:56;20.00;;;12.23;;
29378;SDS011;16362;47.202;15.258;2023-03-01T06:30:23;21.40;;;12.98;;
29378;SDS011;16362;47.202;15.258;2023-03-01T06:32:51;18.90;;;13.23;;
29378;SDS011;16362;47.202;15.258;2023-03-01T06:35:18;17.85;;;12.57;;
29378;SDS011;16362;47.202;15.258;2023-03-01T06:37:46;19.48;;;12.73;;
29378;SDS011;16362;47.202;15.258;2023-03-01T06:40:14;21.73;;;12.80;;
29378;SDS011;16362;47.202;15.258;2023-03-01T06:42:42;22.40;;;13.55;;
29378;SDS011;16362;47.202;15.258;2023-03-01T06:45:14;20.02;;;12.23;;
29378;SDS011;16362;47.202;15.258;2023-03-01T06:47:42;18.92;;;11.88;;
29378;SDS011;16362;47.202;15.258;2023-03-01T06:50:09;22.35;;;13.07;;
29378;SDS011;16362;47.202;15.258;2023-03-01T06:52:36;20.27;;;12.98;;
29378;SDS011;16362;47.202;15.258;2023-03-01T06:55:03;24.15;;;14.02;;
29378;SDS011;16362;47.202;15.258;2023-03-01T06:57:30;19.02;;;12.43;;
29378;SDS011;16362;47.202;15.258;2023-03-01T06:59:57;20.75;;;13.25;;
29378;SDS011;16362;47.202;15.258;2023-03-01T07:02:24;24.88;;;13.85;;
29378;SDS011;16362;47.202;15.258;2023-03-01T07:04:51;23.33;;;13.50;;
29378;SDS011;16362;47.202;15.258;2023-03-01T07:07:18;24.23;;;14.70;;
29378;SDS011;16362;47.202;15.258;2023-03-01T07:09:45;18.08;;;12.05;;
29378;SDS011;16362;47.202;15.258;2023-03-01T07:12:12;22.42;;;12.85;;
29378;SDS011;16362;47.202;15.258;2023-03-01T07:14:39;21.77;;;13.13;;
29378;SDS011;16362;47.202;15.258;2023-03-01T07:17:06;23.30;;;13.88;;
29378;SDS011;16362;47.202;15.258;2023-03-01T07:19:33;21.67;;;13.90;;
29378;SDS011;16362;47.202;15.258;2023-03-01T07:22:00;24.20;;;14.68;;
29378;SDS011;16362;47.202;15.258;2023-03-01T07:24:26;20.98;;;13.68;;
29378;SDS011;16362;47.202;15.258;2023-03-01T07:26:53;26.88;;;13.77;;
29378;SDS011;16362;47.202;15.258;2023-03-01T07:29:20;20.60;;;12.65;;
29378;SDS011;16362;47.202;15.258;2023-03-01T07:31:47;21.25;;;12.60;;
29378;SDS011;16362;47.202;15.258;2023-03-01T07:34:13;19.02;;;12.50;;
29378;SDS011;16362;47.202;15.258;2023-03-01T07:36:40;22.48;;;13.80;;
29378;SDS011;16362;47.202;15.258;2023-03-01T07:39:09;24.30;;;13.65;;
29378;SDS011;16362;47.202;15.258;2023-03-01T07:41:37;26.70;;;13.93;;
29378;SDS011;16362;47.202;15.258;2023-03-01T07:44:04;22.70;;;13.73;;
29378;SDS011;16362;47.202;15.258;2023-03-01T07:46:31;19.48;;;13.10;;
29378;SDS011;16362;47.202;15.258;2023-03-01T07:48:58;24.25;;;12.75;;
29378;SDS011;16362;47.202;15.258;2023-03-01T07:51:38;18.75;;;13.82;;
29378;SDS011;16362;47.202;15.258;2023-03-01T07:54:05;22.08;;;13.30;;
29378;SDS011;16362;47.202;15.258;2023-03-01T07:56:31;19.15;;;13.07;;
29378;SDS011;16362;47.202;15.258;2023-03-01T07:58:59;26.45;;;14.65;;
29378;SDS011;16362;47.202;15.258;2023-03-01T08:01:26;34.88;;;19.77;;
29378;SDS011;16362;47.202;15.258;2023-03-01T08:03:52;46.20;;;23.92;;
29378;SDS011;16362;47.202;15.258;2023-03-01T08:06:19;39.58;;;21.38;;
29378;SDS011;16362;47.202;15.258;2023-03-01T08:08:46;36.95;;;19.58;;
29378;SDS011;16362;47.202;15.258;2023-03-01T08:11:13;33.45;;;19.27;;
29378;SDS011;16362;47.202;15.258;2023-03-01T08:13:41;36.53;;;20.45;;
29378;SDS011;16362;47.202;15.258;2023-03-01T08:16:11;34.42;;;18.38;;
29378;SDS011;16362;47.202;15.258;2023-03-01T08:18:39;33.17;;;17.58;;
29378;SDS011;16362;47.202;15.258;2023-03-01T08:21:10;30.90;;;18.13;;
29378;SDS011;16362;47.202;15.258;2023-03-01T08:23:38;33.28;;;17.42;;
29378;SDS011;16362;47.202;15.258;2023-03-01T08:26:08;27.30;;;16.40;;
29378;SDS011;16362;47.202;15.258;2023-03-01T08:28:36;28.08;;;16.40;;
29378;SDS011;16362;47.202;15.258;2023-03-01T08:31:12;28.65;;;17.05;;
29378;SDS011;16362;47.202;15.258;2023-03-01T08:33:41;28.73;;;16.92;;
29378;SDS011;16362;47.202;15.258;2023-03-01T08:36:08;28.67;;;16.77;;
29378;SDS011;16362;47.202;15.258;2023-03-01T08:38:35;26.02;;;16.42;;
29378;SDS011;16362;47.202;15.258;2023-03-01T08:41:02;27.88;;;15.98;;
29378;SDS011;16362;47.202;15.258;2023-03-01T08:43:30;31.67;;;17.05;;
29378;SDS011;16362;47.202;15.258;2023-03-01T08:45:57;26.38;;;15.50;;
29378;SDS011;16362;47.202;15.258;2023-03-01T08:48:24;23.73;;;14.32;;
29378;SDS011;16362;47.202;15.258;2023-03-01T08:50:54;22.83;;;15.23;;
29378;SDS011;16362;47.202;15.258;2023-03-01T08:53:21;25.02;;;15.32;;
29378;SDS011;16362;47.202;15.258;2023-03-01T08:55:47;30.85;;;15.80;;
29378;SDS011;16362;47.202;15.258;2023-03-01T08:58:15;30.00;;;15.98;;
29378;SDS011;16362;47.202;15.258;2023-03-01T09:00:42;24.13;;;15.38;;
29378;SDS011;16362;47.202;15.258;2023-03-01T09:03:09;27.85;;;15.65;;
29378;SDS011;16362;47.202;15.258;2023-03-01T09:05:48;28.08;;;15.32;;
29378;SDS011;16362;47.202;15.258;2023-03-01T09:08:17;29.95;;;16.15;;
29378;SDS011;16362;47.202;15.258;2023-03-01T09:10:44;33.42;;;16.30;;
29378;SDS011;16362;47.202;15.258;2023-03-01T09:13:11;29.17;;;16.50;;
29378;SDS011;16362;47.202;15.258;2023-03-01T09:17:13;30.13;;;15.27;;
29378;SDS011;16362;47.202;15.258;2023-03-01T09:19:40;34.47;;;16.13;;
29378;SDS011;16362;47.202;15.258;2023-03-01T09:22:07;25.50;;;15.40;;
29378;SDS011;16362;47.202;15.258;2023-03-01T09:24:33;25.50;;;15.48;;
29378;SDS011;16362;47.202;15.258;2023-03-01T09:27:00;28.38;;;15.98;;
29378;SDS011;16362;47.202;15.258;2023-03-01T09:29:27;26.20;;;15.43;;
29378;SDS011;16362;47.202;15.258;2023-03-01T09:31:54;28.00;;;15.88;;
29378;SDS011;16362;47.202;15.258;2023-03-01T09:34:21;25.05;;;15.30;;
29378;SDS011;16362;47.202;15.258;2023-03-01T09:36:50;28.05;;;15.80;;
29378;SDS011;16362;47.202;15.258;2023-03-01T09:39:17;27.48;;;15.82;;
29378;SDS011;16362;47.202;15.258;2023-03-01T09:44:18;32.72;;;16.42;;
29378;SDS011;16362;47.202;15.258;2023-03-01T09:46:54;29.63;;;17.08;;
29378;SDS011;16362;47.202;15.258;2023-03-01T09:49:27;28.08;;;16.35;;
29378;SDS011;16362;47.202;15.258;2023-03-01T09:55:00;27.13;;;16.08;;
29378;SDS011;16362;47.202;15.258;2023-03-01T09:57:50;33.05;;;16.25;;
29378;SDS011;16362;47.202;15.258;2023-03-01T10:02:21;31.38;;;16.35;;
29378;SDS011;16362;47.202;15.258;2023-03-01T10:04:55;28.27;;;16.65;;
29378;SDS011;16362;47.202;15.258;2023-03-01T10:10:15;27.13;;;15.80;;
29378;SDS011;16362;47.202;15.258;2023-03-01T10:12:51;31.20;;;15.35;;
29378;SDS011;16362;47.202;15.258;2023-03-01T10:15:22;25.98;;;16.27;;
29378;SDS011;16362;47.202;15.258;2023-03-01T10:18:03;28.98;;;16.60;;
29378;SDS011;16362;47.202;15.258;2023-03-01T10:20:44;31.60;;;16.92;;
29378;SDS011;16362;47.202;15.258;2023-03-01T10:23:14;28.88;;;16.60;;
29378;SDS011;16362;47.202;15.258;2023-03-01T10:28:58;37.67;;;17.42;;
29378;SDS011;16362;47.202;15.258;2023-03-01T10:31:46;27.42;;;16.17;;
29378;SDS011;16362;47.202;15.258;2023-03-01T10:34:28;30.45;;;16.05;;
29378;SDS011;16362;47.202;15.258;2023-03-01T10:36:58;40.90;;;17.55;;
29378;SDS011;16362;47.202;15.258;2023-03-01T10:39:58;30.45;;;16.65;;
29378;SDS011;16362;47.202;15.258;2023-03-01T10:42:37;36.00;;;16.38;;
29378;SDS011;16362;47.202;15.258;2023-03-01T10:47:41;32.88;;;16.77;;
29378;SDS011;16362;47.202;15.258;2023-03-01T10:50:21;35.50;;;16.75;;
29378;SDS011;16362;47.202;15.258;2023-03-01T10:52:56;35.10;;;16.83;;
29378;SDS011;16362;47.202;15.258;2023-03-01T10:55:43;34.28;;;16.70;;
29378;SDS011;16362;47.202;15.258;2023-03-01T10:58:17;32.88;;;17.25;;
29378;SDS011;16362;47.202;15.258;2023-03-01T11:03:15;35.70;;;18.33;;
29378;SDS011;16362;47.202;15.258;2023-03-01T11:11:14;38.22;;;16.63;;
29378;SDS011;16362;47.202;15.258;2023-03-01T11:19:01;27.83;;;15.43;;
29378;SDS011;16362;47.202;15.258;2023-03-01T11:21:28;33.08;;;16.65;;
29378;SDS011;16362;47.202;15.258;2023-03-01T11:23:59;34.88;;;17.10;;
29378;SDS011;16362;47.202;15.258;2023-03-01T11:26:28;32.17;;;16.63;;
29378;SDS011;16362;47.202;15.258;2023-03-01T11:28:58;30.17;;;15.80;;
29378;SDS011;16362;47.202;15.258;2023-03-01T11:31:31;32.08;;;16.30;;
29378;SDS011;16362;47.202;15.258;2023-03-01T11:34:02;33.13;;;16.15;;
29378;SDS011;16362;47.202;15.258;2023-03-01T11:41:52;28.85;;;16.00;;
29378;SDS011;16362;47.202;15.258;2023-03-01T11:44:44;29.75;;;16.45;;
29378;SDS011;16362;47.202;15.258;2023-03-01T12:15:57;25.05;;;14.40;;
29378;SDS011;16362;47.202;15.258;2023-03-01T12:29:58;26.90;;;14.07;;
29378;SDS011;16362;47.202;15.258;2023-03-01T12:49:31;21.65;;;12.10;;
29378;SDS011;16362;47.202;15.258;2023-03-01T12:52:06;25.83;;;13.18;;
29378;SDS011;16362;47.202;15.258;2023-03-01T12:57:26;21.92;;;12.10;;
29378;SDS011;16362;47.202;15.258;2023-03-01T13:00:09;21.75;;;13.00;;
29378;SDS011;16362;47.202;15.258;2023-03-01T13:06:06;24.02;;;13.57;;
29378;SDS011;16362;47.202;15.258;2023-03-01T13:11:18;19.98;;;11.60;;
29378;SDS011;16362;47.202;15.258;2023-03-01T13:13:47;20.00;;;11.95;;
29378;SDS011;16362;47.202;15.258;2023-03-01T13:19:06;20.75;;;11.15;;
29378;SDS011;16362;47.202;15.258;2023-03-01T13:21:36;16.35;;;10.75;;
29378;SDS011;16362;47.202;15.258;2023-03-01T13:24:02;12.80;;;9.45;;
29378;SDS011;16362;47.202;15.258;2023-03-01T13:26:29;15.25;;;10.13;;
29378;SDS011;16362;47.202;15.258;2023-03-01T13:28:57;13.68;;;10.48;;
29378;SDS011;16362;47.202;15.258;2023-03-01T13:33:53;15.25;;;10.18;;
29378;SDS011;16362;47.202;15.258;2023-03-01T13:46:49;16.67;;;9.40;;
29378;SDS011;16362;47.202;15.258;2023-03-01T13:49:18;13.00;;;9.52;;
29378;SDS011;16362;47.202;15.258;2023-03-01T13:51:48;10.70;;;8.75;;
29378;SDS011;16362;47.202;15.258;2023-03-01T13:54:17;10.27;;;7.43;;
29378;SDS011;16362;47.202;15.258;2023-03-01T13:56:52;16.15;;;8.15;;
29378;SDS011;16362;47.202;15.258;2023-03-01T13:59:21;13.27;;;7.63;;
29378;SDS011;16362;47.202;15.258;2023-03-01T14:01:54;11.52;;;8.55;;
29378;SDS011;16362;47.202;15.258;2023-03-01T14:06:52;15.52;;;7.47;;
29378;SDS011;16362;47.202;15.258;2023-03-01T14:09:57;8.25;;;7.43;;
29378;SDS011;16362;47.202;15.258;2023-03-01T14:12:30;10.60;;;7.35;;
29378;SDS011;16362;47.202;15.258;2023-03-01T14:15:22;7.28;;;6.65;;
29378;SDS011;16362;47.202;15.258;2023-03-01T14:18:08;12.40;;;7.75;;
29378;SDS011;16362;47.202;15.258;2023-03-01T14:20:43;11.02;;;7.28;;
29378;SDS011;16362;47.202;15.258;2023-03-01T14:23:18;8.63;;;7.78;;
29378;SDS011;16362;47.202;15.258;2023-03-01T14:26:05;11.52;;;7.93;;
29378;SDS011;16362;47.202;15.258;2023-03-01T14:28:31;8.50;;;7.57;;
29378;SDS011;16362;47.202;15.258;2023-03-01T14:31:03;8.05;;;7.10;;
29378;SDS011;16362;47.202;15.258;2023-03-01T14:34:20;6.10;;;5.10;;
29378;SDS011;16362;47.202;15.258;2023-03-01T14:36:48;7.85;;;7.18;;
29378;SDS011;16362;47.202;15.258;2023-03-01T14:39:16;10.75;;;7.78;;
29378;SDS011;16362;47.202;15.258;2023-03-01T14:41:45;7.93;;;7.10;;
29378;SDS011;16362;47.202;15.258;2023-03-01T14:44:14;11.50;;;6.80;;
29378;SDS011;16362;47.202;15.258;2023-03-01T14:46:44;8.23;;;6.68;;
29378;SDS011;16362;47.202;15.258;2023-03-01T14:51:42;8.02;;;6.90;;
29378;SDS011;16362;47.202;15.258;2023-03-01T14:54:20;8.30;;;6.95;;
29378;SDS011;16362;47.202;15.258;2023-03-01T14:56:54;8.52;;;6.75;;
29378;SDS011;16362;47.202;15.258;2023-03-01T14:59:24;6.50;;;5.97;;
29378;SDS011;16362;47.202;15.258;2023-03-01T15:01:51;6.95;;;6.25;;
29378;SDS011;16362;47.202;15.258;2023-03-01T15:04:22;7.30;;;6.55;;
29378;SDS011;16362;47.202;15.258;2023-03-01T15:06:51;6.03;;;4.95;;
29378;SDS011;16362;47.202;15.258;2023-03-01T15:09:18;4.53;;;4.13;;
29378;SDS011;16362;47.202;15.258;2023-03-01T15:11:46;4.45;;;4.05;;
29378;SDS011;16362;47.202;15.258;2023-03-01T15:17:21;5.15;;;4.80;;
29378;SDS011;16362;47.202;15.258;2023-03-01T15:19:52;5.53;;;5.05;;
29378;SDS011;16362;47.202;15.258;2023-03-01T15:22:19;4.97;;;4.50;;
29378;SDS011;16362;47.202;15.258;2023-03-01T15:24:48;5.80;;;5.40;;
29378;SDS011;16362;47.202;15.258;2023-03-01T15:27:17;10.02;;;6.80;;
29378;SDS011;16362;47.202;15.258;2023-03-01T15:35:00;7.13;;;6.25;;
29378;SDS011;16362;47.202;15.258;2023-03-01T15:37:48;8.40;;;6.55;;
29378;SDS011;16362;47.202;15.258;2023-03-01T15:42:58;9.68;;;7.38;;
29378;SDS011;16362;47.202;15.258;2023-03-01T15:45:26;7.55;;;6.10;;
29378;SDS011;16362;47.202;15.258;2023-03-01T15:47:55;9.95;;;6.97;;
29378;SDS011;16362;47.202;15.258;2023-03-01T15:50:25;6.80;;;6.25;;
29378;SDS011;16362;47.202;15.258;2023-03-01T15:52:55;7.32;;;6.63;;
29378;SDS011;16362;47.202;15.258;2023-03-01T15:55:25;12.48;;;7.10;;
29378;SDS011;16362;47.202;15.258;2023-03-01T16:00:32;9.60;;;7.07;;
29378;SDS011;16362;47.202;15.258;2023-03-01T16:02:59;10.02;;;8.00;;
29378;SDS011;16362;47.202;15.258;2023-03-01T16:05:33;12.68;;;7.45;;
29378;SDS011;16362;47.202;15.258;2023-03-01T16:08:03;8.02;;;7.20;;
29378;SDS011;16362;47.202;15.258;2023-03-01T16:12:42;7.10;;;6.50;;
29378;SDS011;16362;47.202;15.258;2023-03-01T16:15:13;8.68;;;6.88;;
29378;SDS011;16362;47.202;15.258;2023-03-01T16:17:53;9.15;;;7.88;;
29378;SDS011;16362;47.202;15.258;2023-03-01T16:20:19;7.15;;;6.20;;
29378;SDS011;16362;47.202;15.258;2023-03-01T16:22:54;16.05;;;6.95;;
29378;SDS011;16362;47.202;15.258;2023-03-01T16:25:21;8.45;;;6.78;;
29378;SDS011;16362;47.202;15.258;2023-03-01T16:27:49;10.05;;;6.55;;
29378;SDS011;16362;47.202;15.258;2023-03-01T16:30:19;7.22;;;6.45;;
29378;SDS011;16362;47.202;15.258;2023-03-01T16:32:47;7.78;;;6.63;;
29378;SDS011;16362;47.202;15.258;2023-03-01T16:35:17;7.60;;;6.05;;
29378;SDS011;16362;47.202;15.258;2023-03-01T16:37:45;6.53;;;5.90;;
29378;SDS011;16362;47.202;15.258;2023-03-01T16:40:19;6.38;;;5.88;;
29378;SDS011;16362;47.202;15.258;2023-03-01T16:42:52;11.65;;;6.72;;
29378;SDS011;16362;47.202;15.258;2023-03-01T16:45:21;6.53;;;5.95;;
29378;SDS011;16362;47.202;15.258;2023-03-01T16:47:50;7.72;;;6.57;;
29378;SDS011;16362;47.202;15.258;2023-03-01T16:50:21;7.30;;;6.05;;
29378;SDS011;16362;47.202;15.258;2023-03-01T16:52:47;6.43;;;5.88;;
29378;SDS011;16362;47.202;15.258;2023-03-01T16:55:14;7.60;;;5.93;;
29378;SDS011;16362;47.202;15.258;2023-03-01T16:57:41;7.28;;;6.30;;
29378;SDS011;16362;47.202;15.258;2023-03-01T17:00:09;6.63;;;6.07;;
29378;SDS011;16362;47.202;15.258;2023-03-01T17:02:39;6.85;;;6.18;;
29378;SDS011;16362;47.202;15.258;2023-03-01T17:05:20;9.85;;;6.78;;
29378;SDS011;16362;47.202;15.258;2023-03-01T17:07:48;6.97;;;6.32;;
29378;SDS011;16362;47.202;15.258;2023-03-01T17:10:15;6.63;;;6.00;;